createdAt,value
2023-05-21T00:00:37.590Z,82.42797852
2023-05-21T00:01:39.064Z,82.2265625
2023-05-21T00:02:40.156Z,82.2265625
2023-05-21T00:03:41.274Z,82.2265625
2023-05-21T00:04:41.491Z,82.02514648
2023-05-21T00:05:42.912Z,81.92138672
2023-05-21T00:06:44.098Z,82.02514648
2023-05-21T00:07:45.058Z,82.12280273
2023-05-21T00:08:46.058Z,82.2265625
2023-05-21T00:09:47.072Z,82.33032227
2023-05-21T00:10:48.450Z,82.53173828
2023-05-21T00:11:49.546Z,82.53173828
2023-05-21T00:12:50.685Z,82.42797852
2023-05-21T00:13:52.046Z,82.42797852
2023-05-21T00:14:53.047Z,82.42797852
2023-05-21T00:15:54.337Z,82.33032227
2023-05-21T00:16:55.570Z,82.33032227
2023-05-21T00:17:56.696Z,82.33032227
2023-05-21T00:18:57.662Z,82.33032227
2023-05-21T00:19:58.806Z,82.33032227
2023-05-21T00:20:59.859Z,82.2265625
2023-05-21T00:22:01.088Z,82.2265625
2023-05-21T00:23:02.072Z,82.33032227
2023-05-21T00:24:03.606Z,82.53173828
2023-05-21T00:25:35.093Z,82.63549805
2023-05-21T00:26:35.808Z,82.7331543
2023-05-21T00:27:36.799Z,82.7331543
2023-05-21T00:28:38.034Z,82.63549805
2023-05-21T00:29:39.035Z,82.53173828
2023-05-21T00:30:40.291Z,82.42797852
2023-05-21T00:31:41.533Z,82.42797852
2023-05-21T00:32:42.789Z,82.42797852
2023-05-21T00:33:43.813Z,82.2265625
2023-05-21T00:34:44.793Z,82.12280273
2023-05-21T00:35:45.783Z,82.12280273
2023-05-21T00:36:46.841Z,82.2265625
2023-05-21T00:37:48.449Z,82.02514648
2023-05-21T00:38:49.557Z,82.02514648
2023-05-21T00:39:50.542Z,81.92138672
2023-05-21T00:40:51.766Z,81.92138672
2023-05-21T00:41:52.849Z,81.92138672
2023-05-21T00:42:54.304Z,81.82373047
2023-05-21T00:43:55.840Z,81.7199707
2023-05-21T00:44:56.828Z,81.61621094
2023-05-21T00:45:57.795Z,81.61621094
2023-05-21T00:46:58.830Z,81.61621094
2023-05-21T00:48:00.443Z,81.7199707
2023-05-21T00:49:01.798Z,81.82373047
2023-05-21T00:50:33.047Z,81.7199707
2023-05-21T00:51:34.090Z,81.95800781
2023-05-21T00:52:35.554Z,82.06176758
2023-05-21T00:53:36.574Z,82.06176758
2023-05-21T00:54:37.027Z,81.95800781
2023-05-21T00:55:38.487Z,81.92138672
2023-05-21T00:56:39.342Z,81.61621094
2023-05-21T00:57:40.487Z,81.65893555
2023-05-21T00:58:41.822Z,81.61621094
2023-05-21T00:59:42.793Z,81.61621094
2023-05-21T01:00:43.776Z,81.61621094
2023-05-21T01:01:44.976Z,81.7565918
2023-05-21T01:02:46.280Z,81.61621094
2023-05-21T01:03:47.625Z,81.51855469
2023-05-21T01:04:48.304Z,81.41479492
2023-05-21T01:05:49.282Z,81.35375977
2023-05-21T01:06:50.349Z,81.55517578
2023-05-21T01:07:51.350Z,81.7565918
2023-05-21T01:08:52.837Z,81.7565918
2023-05-21T01:09:54.281Z,81.86035156
2023-05-21T01:10:55.302Z,81.95800781
2023-05-21T01:11:56.304Z,81.7565918
2023-05-21T01:12:57.291Z,81.86035156
2023-05-21T01:13:58.285Z,81.7565918
2023-05-21T01:14:59.324Z,81.86035156
2023-05-21T01:16:00.263Z,81.95800781
2023-05-21T01:17:01.324Z,82.16552734
2023-05-21T01:18:32.799Z,82.16552734
2023-05-21T01:19:33.828Z,82.26318359
2023-05-21T01:20:35.577Z,82.26318359
2023-05-21T01:21:36.539Z,82.26318359
2023-05-21T01:22:37.001Z,82.16552734
2023-05-21T01:23:38.376Z,82.16552734
2023-05-21T01:24:39.800Z,82.06176758
2023-05-21T01:25:40.779Z,81.95800781
2023-05-21T01:26:41.785Z,82.16552734
2023-05-21T01:27:42.793Z,82.26318359
2023-05-21T01:28:43.430Z,82.47070313
2023-05-21T01:29:44.863Z,82.56835938
2023-05-21T01:30:46.340Z,82.67211914
2023-05-21T01:31:47.778Z,82.67211914
2023-05-21T01:32:48.850Z,82.56835938
2023-05-21T01:33:49.913Z,82.56835938
2023-05-21T01:34:51.297Z,82.67211914
2023-05-21T01:35:52.301Z,82.67211914
2023-05-21T01:36:53.277Z,82.77587891
2023-05-21T01:37:54.299Z,82.77587891
2023-05-21T01:38:55.293Z,82.56835938
2023-05-21T01:39:56.569Z,82.56835938
2023-05-21T01:40:57.843Z,82.56835938
2023-05-21T01:41:59.264Z,82.67211914
2023-05-21T01:43:00.306Z,82.67211914
2023-05-21T01:44:00.708Z,82.67211914
2023-05-21T01:45:02.123Z,82.61108398
2023-05-21T01:46:32.832Z,82.70874023
2023-05-21T01:47:34.575Z,82.70874023
2023-05-21T01:48:35.565Z,82.70874023
2023-05-21T01:49:36.557Z,82.8125
2023-05-21T01:50:37.040Z,82.70874023
2023-05-21T01:51:38.073Z,82.8125
2023-05-21T01:52:39.072Z,82.70874023
2023-05-21T01:53:40.084Z,82.61108398
2023-05-21T01:54:41.078Z,82.61108398
2023-05-21T01:55:42.633Z,82.70874023
2023-05-21T01:56:43.599Z,82.70874023
2023-05-21T01:57:44.027Z,82.70874023
2023-05-21T01:58:44.469Z,82.8125
2023-05-21T01:59:44.924Z,82.8125
2023-05-21T02:00:45.255Z,82.8125
2023-05-21T02:01:45.815Z,82.8125
2023-05-21T02:02:46.847Z,82.91625977
2023-05-21T02:03:47.937Z,82.91625977
2023-05-21T02:04:48.226Z,82.91625977
2023-05-21T02:05:48.668Z,82.91625977
2023-05-21T02:06:49.841Z,82.8125
2023-05-21T02:07:50.802Z,82.70874023
2023-05-21T02:08:51.816Z,82.61108398
2023-05-21T02:09:52.772Z,82.61108398
2023-05-21T02:10:53.762Z,82.40356445
2023-05-21T02:11:54.829Z,82.3059082
2023-05-21T02:12:55.791Z,82.40356445
2023-05-21T02:13:56.793Z,82.3059082
2023-05-21T02:14:57.816Z,82.40356445
2023-05-21T02:15:58.814Z,82.40356445
2023-05-21T02:16:59.878Z,82.40356445
2023-05-21T02:18:01.188Z,82.40356445
2023-05-21T02:19:32.810Z,82.50732422
2023-05-21T02:20:33.767Z,82.40356445
2023-05-21T02:21:34.774Z,82.3059082
2023-05-21T02:22:35.261Z,82.3059082
2023-05-21T02:23:36.587Z,82.3059082
2023-05-21T02:24:37.614Z,82.3059082
2023-05-21T02:25:38.343Z,82.3059082
2023-05-21T02:26:39.063Z,82.40356445
2023-05-21T02:27:40.110Z,82.50732422
2023-05-21T02:28:41.590Z,82.50732422
2023-05-21T02:29:42.576Z,82.50732422
2023-05-21T02:30:43.771Z,82.09838867
2023-05-21T02:31:44.763Z,81.89697266
2023-05-21T02:32:45.833Z,81.79321289
2023-05-21T02:33:46.788Z,81.79321289
2023-05-21T02:34:48.229Z,81.79321289
2023-05-21T02:35:49.276Z,81.79321289
2023-05-21T02:36:50.282Z,81.79321289
2023-05-21T02:37:51.266Z,81.69555664
2023-05-21T02:38:52.388Z,81.59179688
2023-05-21T02:39:53.829Z,81.59179688
2023-05-21T02:40:54.766Z,81.69555664
2023-05-21T02:41:55.788Z,81.69555664
2023-05-21T02:42:56.780Z,81.69555664
2023-05-21T02:43:57.877Z,81.69555664
2023-05-21T02:44:59.329Z,81.49414063
2023-05-21T02:46:00.373Z,81.28662109
2023-05-21T02:47:32.092Z,81.28662109
2023-05-21T02:48:33.072Z,81.28662109
2023-05-21T02:49:34.079Z,81.3293457
2023-05-21T02:50:35.107Z,81.42700195
2023-05-21T02:51:36.105Z,81.53076172
2023-05-21T02:52:37.110Z,81.62841797
2023-05-21T02:53:38.066Z,81.73217773
2023-05-21T02:54:39.127Z,81.53076172
2023-05-21T02:55:40.622Z,81.42700195
2023-05-21T02:56:41.553Z,81.3293457
2023-05-21T02:57:42.598Z,81.3293457
2023-05-21T02:58:43.790Z,81.42700195
2023-05-21T02:59:44.906Z,81.53076172
2023-05-21T03:00:46.339Z,81.62841797
2023-05-21T03:01:47.438Z,81.73217773
2023-05-21T03:02:48.668Z,81.73217773
2023-05-21T03:03:49.810Z,81.73217773
2023-05-21T03:04:51.095Z,81.8359375
2023-05-21T03:05:52.342Z,81.8359375
2023-05-21T03:06:53.333Z,81.8359375
2023-05-21T03:07:54.467Z,81.73217773
2023-05-21T03:08:55.782Z,81.53076172
2023-05-21T03:09:57.076Z,81.53076172
2023-05-21T03:10:58.386Z,81.53076172
2023-05-21T03:11:59.278Z,81.53076172
2023-05-21T03:13:00.339Z,81.3293457
2023-05-21T03:14:32.081Z,81.3293457
2023-05-21T03:15:33.072Z,81.42700195
2023-05-21T03:16:34.118Z,81.53076172
2023-05-21T03:17:35.116Z,81.42700195
2023-05-21T03:18:36.142Z,81.42700195
2023-05-21T03:19:37.107Z,81.42700195
2023-05-21T03:20:38.062Z,81.3659668
2023-05-21T03:21:39.138Z,81.56738281
2023-05-21T03:22:40.591Z,81.67114258
2023-05-21T03:23:41.563Z,81.67114258
2023-05-21T03:24:42.562Z,81.76879883
2023-05-21T03:25:42.973Z,81.87255859
2023-05-21T03:26:44.433Z,81.87255859
2023-05-21T03:27:45.869Z,81.97631836
2023-05-21T03:28:47.322Z,81.87255859
2023-05-21T03:29:48.365Z,81.87255859
2023-05-21T03:30:49.339Z,81.87255859
2023-05-21T03:31:50.422Z,81.67114258
2023-05-21T03:32:51.813Z,81.67114258
2023-05-21T03:33:53.272Z,81.67114258
2023-05-21T03:34:54.290Z,81.76879883
2023-05-21T03:35:55.273Z,81.76879883
2023-05-21T03:36:56.616Z,81.56738281
2023-05-21T03:37:57.847Z,81.46362305
2023-05-21T03:38:58.810Z,81.3659668
2023-05-21T03:40:00.196Z,81.56738281
2023-05-21T03:41:31.540Z,81.67114258
2023-05-21T03:42:33.621Z,81.76879883
2023-05-21T03:43:34.581Z,81.67114258
2023-05-21T03:44:35.568Z,81.67114258
2023-05-21T03:45:36.877Z,81.56738281
2023-05-21T03:46:37.885Z,81.46362305
2023-05-21T03:47:38.727Z,81.46362305
2023-05-21T03:48:40.103Z,81.46362305
2023-05-21T03:49:41.079Z,81.3659668
2023-05-21T03:50:42.123Z,81.26220703
2023-05-21T03:51:43.111Z,81.15844727
2023-05-21T03:52:44.606Z,81.15844727
2023-05-21T03:53:45.601Z,81.26220703
2023-05-21T03:54:46.780Z,81.26220703
2023-05-21T03:55:47.877Z,81.26220703
2023-05-21T03:56:49.343Z,81.26220703
2023-05-21T03:57:50.384Z,81.26220703
2023-05-21T03:58:51.331Z,81.3659668
2023-05-21T03:59:52.314Z,81.3659668
2023-05-21T04:00:53.315Z,81.46362305
2023-05-21T04:01:54.277Z,81.3659668
2023-05-21T04:02:55.531Z,81.3659668
2023-05-21T04:03:57.124Z,81.3659668
2023-05-21T04:04:58.313Z,81.3659668
2023-05-21T04:05:59.279Z,81.06079102
2023-05-21T04:07:01.105Z,81.26220703
2023-05-21T04:08:33.172Z,81.26220703
2023-05-21T04:09:36.530Z,81.3659668
2023-05-21T04:10:35.077Z,81.26220703
2023-05-21T04:11:36.078Z,81.26220703
2023-05-21T04:12:37.133Z,81.26220703
2023-05-21T04:13:38.122Z,81.15844727
2023-05-21T04:14:38.555Z,80.95703125
2023-05-21T04:15:39.964Z,80.95703125
2023-05-21T04:16:40.785Z,81.06079102
2023-05-21T04:17:42.108Z,81.06079102
2023-05-21T04:18:45.533Z,80.95703125
2023-05-21T04:19:43.435Z,80.95703125
2023-05-21T04:20:43.862Z,80.85327148
2023-05-21T04:21:45.308Z,80.85327148
2023-05-21T04:22:45.736Z,80.95703125
2023-05-21T04:23:46.893Z,80.95703125
2023-05-21T04:24:47.819Z,81.06079102
2023-05-21T04:25:48.888Z,81.06079102
2023-05-21T04:26:50.283Z,81.06079102
2023-05-21T04:27:51.303Z,81.06079102
2023-05-21T04:28:52.462Z,80.85327148
2023-05-21T04:29:53.798Z,80.85327148
2023-05-21T04:30:54.821Z,80.85327148
2023-05-21T04:31:55.822Z,80.85327148
2023-05-21T04:32:56.274Z,80.85327148
2023-05-21T04:33:56.843Z,80.95703125
2023-05-21T04:34:57.829Z,80.85327148
2023-05-21T04:35:58.846Z,80.95703125
2023-05-21T04:37:31.091Z,81.06079102
2023-05-21T04:38:32.085Z,80.81665039
2023-05-21T04:39:33.111Z,80.71899414
2023-05-21T04:40:36.812Z,80.85327148
2023-05-21T04:41:35.585Z,80.95703125
2023-05-21T04:42:36.589Z,81.06079102
2023-05-21T04:43:37.587Z,81.12182617
2023-05-21T04:44:38.636Z,81.22558594
2023-05-21T04:45:40.091Z,81.12182617
2023-05-21T04:46:41.885Z,80.92041016
2023-05-21T04:47:42.345Z,80.81665039
2023-05-21T04:48:43.445Z,80.71899414
2023-05-21T04:49:44.903Z,80.41381836
2023-05-21T04:50:46.351Z,80.20629883
2023-05-21T04:51:47.336Z,80.20629883
2023-05-21T04:52:48.602Z,80.31005859
2023-05-21T04:53:49.026Z,80.51147461
2023-05-21T04:54:50.419Z,80.81665039
2023-05-21T04:55:51.831Z,81.02416992
2023-05-21T04:56:53.094Z,81.22558594
2023-05-21T04:57:54.083Z,81.3293457
2023-05-21T04:58:55.079Z,81.22558594
2023-05-21T04:59:55.652Z,81.22558594
2023-05-21T05:00:56.935Z,81.22558594
2023-05-21T05:01:58.331Z,81.3293457
2023-05-21T05:03:30.596Z,81.22558594
2023-05-21T05:04:31.592Z,81.12182617
2023-05-21T05:05:32.732Z,81.02416992
2023-05-21T05:06:34.104Z,80.92041016
2023-05-21T05:07:35.612Z,80.81665039
2023-05-21T05:08:36.595Z,80.67626953
2023-05-21T05:09:37.588Z,80.57861328
2023-05-21T05:10:38.591Z,80.47485352
2023-05-21T05:11:40.128Z,80.37109375
2023-05-21T05:12:41.342Z,80.37109375
2023-05-21T05:13:42.589Z,80.47485352
2023-05-21T05:14:43.589Z,80.47485352
2023-05-21T05:15:44.603Z,80.2734375
2023-05-21T05:16:45.908Z,79.96826172
2023-05-21T05:17:47.427Z,80.06591797
2023-05-21T05:18:48.588Z,80.06591797
2023-05-21T05:19:49.821Z,80.2734375
2023-05-21T05:20:50.818Z,80.33447266
2023-05-21T05:21:51.872Z,80.37109375
2023-05-21T05:22:52.808Z,80.43823242
2023-05-21T05:23:54.104Z,80.33447266
2023-05-21T05:24:55.092Z,80.23681641
2023-05-21T05:25:56.127Z,80.33447266
2023-05-21T05:26:57.458Z,80.33447266
2023-05-21T05:27:59.301Z,80.43823242
2023-05-21T05:29:31.593Z,80.54199219
2023-05-21T05:30:32.629Z,80.54199219
2023-05-21T05:31:33.130Z,80.54199219
2023-05-21T05:32:34.433Z,80.33447266
2023-05-21T05:33:35.858Z,80.33447266
2023-05-21T05:34:36.855Z,80.33447266
2023-05-21T05:35:38.720Z,80.43823242
2023-05-21T05:36:39.056Z,80.43823242
2023-05-21T05:37:40.395Z,80.33447266
2023-05-21T05:38:41.869Z,80.13305664
2023-05-21T05:39:42.793Z,80.13305664
2023-05-21T05:40:43.875Z,80.13305664
2023-05-21T05:41:45.304Z,80.02929688
2023-05-21T05:42:45.784Z,79.99267578
2023-05-21T05:43:46.888Z,79.99267578
2023-05-21T05:44:48.309Z,80.09643555
2023-05-21T05:45:49.362Z,79.89501953
2023-05-21T05:46:50.342Z,79.79125977
2023-05-21T05:47:51.365Z,79.79125977
2023-05-21T05:48:52.355Z,79.99267578
2023-05-21T05:49:53.340Z,80.13305664
2023-05-21T05:50:54.327Z,80.29785156
2023-05-21T05:51:55.318Z,80.40161133
2023-05-21T05:52:56.356Z,80.1940918
2023-05-21T05:53:57.645Z,80.1940918
2023-05-21T05:54:59.117Z,79.79125977
2023-05-21T05:56:31.092Z,79.58984375
2023-05-21T05:57:31.546Z,79.6875
2023-05-21T05:58:32.867Z,79.6875
2023-05-21T05:59:34.606Z,79.79125977
2023-05-21T06:00:35.614Z,79.79125977
2023-05-21T06:01:36.608Z,79.58984375
2023-05-21T06:02:37.142Z,79.58984375
2023-05-21T06:03:38.675Z,79.58984375
2023-05-21T06:04:39.689Z,79.48608398
2023-05-21T06:05:41.163Z,79.48608398
2023-05-21T06:06:42.098Z,79.58984375
2023-05-21T06:07:43.120Z,79.48608398
2023-05-21T06:08:44.336Z,79.24804688
2023-05-21T06:09:45.386Z,79.04052734
2023-05-21T06:10:46.847Z,78.63769531
2023-05-21T06:11:47.827Z,78.83911133
2023-05-21T06:12:48.828Z,79.04052734
2023-05-21T06:13:50.094Z,79.14428711
2023-05-21T06:14:51.086Z,79.14428711
2023-05-21T06:15:51.622Z,79.24804688
2023-05-21T06:16:52.911Z,79.04052734
2023-05-21T06:17:54.386Z,78.74145508
2023-05-21T06:18:55.375Z,78.74145508
2023-05-21T06:19:56.319Z,78.83911133
2023-05-21T06:20:57.379Z,79.04052734
2023-05-21T06:22:29.590Z,79.14428711
2023-05-21T06:23:30.658Z,79.24804688
2023-05-21T06:24:31.646Z,78.90625
2023-05-21T06:25:32.617Z,78.90625
2023-05-21T06:26:33.093Z,78.90625
2023-05-21T06:27:35.101Z,78.80249023
2023-05-21T06:28:36.113Z,78.60107422
2023-05-21T06:29:37.102Z,78.49731445
2023-05-21T06:30:38.604Z,78.46069336
2023-05-21T06:31:40.104Z,78.46069336
2023-05-21T06:32:41.219Z,78.46069336
2023-05-21T06:33:42.383Z,78.46069336
2023-05-21T06:34:43.592Z,78.25927734
2023-05-21T06:35:45.121Z,78.15551758
2023-05-21T06:36:46.632Z,78.15551758
2023-05-21T06:37:47.825Z,78.05786133
2023-05-21T06:38:48.843Z,78.11889648
2023-05-21T06:39:49.814Z,78.02124023
2023-05-21T06:40:50.858Z,78.02124023
2023-05-21T06:41:51.849Z,77.91748047
2023-05-21T06:42:52.832Z,77.71606445
2023-05-21T06:43:53.853Z,77.71606445
2023-05-21T06:44:55.101Z,77.81982422
2023-05-21T06:45:56.396Z,77.71606445
2023-05-21T06:46:57.338Z,77.37426758
2023-05-21T06:47:59.141Z,76.66625977
2023-05-21T06:49:30.464Z,76.5625
2023-05-21T06:50:31.809Z,76.46484375
2023-05-21T06:51:32.908Z,76.36108398
2023-05-21T06:52:34.327Z,76.5625
2023-05-21T06:53:35.317Z,76.5625
2023-05-21T06:54:36.339Z,76.46484375
2023-05-21T06:55:37.799Z,76.46484375
2023-05-21T06:56:38.968Z,76.36108398
2023-05-21T06:57:40.357Z,76.26342773
2023-05-21T06:58:41.377Z,75.75683594
2023-05-21T06:59:42.335Z,75.75683594
2023-05-21T07:00:43.632Z,75.54931641
2023-05-21T07:01:44.908Z,75.54931641
2023-05-21T07:02:45.959Z,75.45166016
2023-05-21T07:03:46.920Z,75.04272461
2023-05-21T07:04:47.844Z,75.04272461
2023-05-21T07:05:48.232Z,75.04272461
2023-05-21T07:06:48.700Z,75.25024414
2023-05-21T07:07:49.802Z,75.25024414
2023-05-21T07:08:51.079Z,75.25024414
2023-05-21T07:09:52.091Z,75.61645508
2023-05-21T07:10:52.549Z,75.72021484
2023-05-21T07:11:53.816Z,75.81787109
2023-05-21T07:12:54.850Z,75.92163086
2023-05-21T07:13:55.826Z,75.72021484
2023-05-21T07:14:58.152Z,75.21362305
2023-05-21T07:16:29.164Z,75.01220703
2023-05-21T07:17:30.115Z,74.90844727
2023-05-21T07:18:31.085Z,74.90844727
2023-05-21T07:19:31.628Z,74.90844727
2023-05-21T07:20:32.906Z,75.01220703
2023-05-21T07:21:34.668Z,75.01220703
2023-05-21T07:22:35.101Z,74.90844727
2023-05-21T07:23:35.532Z,74.90844727
2023-05-21T07:24:36.604Z,74.97558594
2023-05-21T07:25:37.892Z,75.07324219
2023-05-21T07:26:38.114Z,75.07324219
2023-05-21T07:27:39.308Z,75.07324219
2023-05-21T07:28:40.332Z,75.28076172
2023-05-21T07:29:41.326Z,75.48217773
2023-05-21T07:30:42.382Z,75.68359375
2023-05-21T07:31:43.634Z,75.68359375
2023-05-21T07:32:44.822Z,75.88500977
2023-05-21T07:33:45.842Z,75.98876953
2023-05-21T07:34:46.813Z,75.98876953
2023-05-21T07:35:47.852Z,75.88500977
2023-05-21T07:36:48.795Z,75.68359375
2023-05-21T07:37:49.826Z,75.68359375
2023-05-21T07:38:50.812Z,75.68359375
2023-05-21T07:39:51.867Z,75.68359375
2023-05-21T07:40:52.851Z,75.68359375
2023-05-21T07:41:54.106Z,75.68359375
2023-05-21T07:42:55.107Z,75.48217773
2023-05-21T07:43:56.118Z,75.17700195
2023-05-21T07:44:56.541Z,75.04272461
2023-05-21T07:46:28.688Z,74.93896484
2023-05-21T07:47:29.034Z,74.84130859
2023-05-21T07:48:32.168Z,74.84130859
2023-05-21T07:49:32.105Z,74.63378906
2023-05-21T07:50:33.084Z,74.53613281
2023-05-21T07:51:34.126Z,74.53613281
2023-05-21T07:52:34.544Z,74.53613281
2023-05-21T07:53:34.966Z,74.53613281
2023-05-21T07:54:36.108Z,74.63378906
2023-05-21T07:55:37.350Z,74.63378906
2023-05-21T07:56:38.124Z,74.63378906
2023-05-21T07:57:39.131Z,74.73754883
2023-05-21T07:58:40.098Z,74.93896484
2023-05-21T07:59:40.513Z,74.8046875
2023-05-21T08:00:41.787Z,74.90234375
2023-05-21T08:01:42.849Z,74.90234375
2023-05-21T08:02:44.058Z,75.00610352
2023-05-21T08:03:45.066Z,75.10375977
2023-05-21T08:04:45.966Z,75.3112793
2023-05-21T08:05:46.822Z,75.91552734
2023-05-21T08:06:47.837Z,76.22070313
2023-05-21T08:07:48.876Z,76.11694336
2023-05-21T08:08:49.822Z,75.81176758
2023-05-21T08:09:50.866Z,75.78125
2023-05-21T08:10:52.289Z,75.67749023
2023-05-21T08:11:53.356Z,75.67749023
2023-05-21T08:12:54.336Z,76.08032227
2023-05-21T08:13:54.747Z,76.18408203
2023-05-21T08:14:55.818Z,76.28173828
2023-05-21T08:16:28.215Z,76.18408203
2023-05-21T08:17:29.233Z,76.08032227
2023-05-21T08:18:30.135Z,75.84228516
2023-05-21T08:19:31.239Z,75.84228516
2023-05-21T08:20:32.105Z,75.54321289
2023-05-21T08:21:32.527Z,75.43945313
2023-05-21T08:22:34.620Z,75.84228516
2023-05-21T08:23:35.635Z,75.43945313
2023-05-21T08:24:36.054Z,74.93286133
2023-05-21T08:25:38.348Z,74.93286133
2023-05-21T08:26:38.517Z,75.03662109
2023-05-21T08:27:39.859Z,75.03662109
2023-05-21T08:28:40.895Z,75.40283203
2023-05-21T08:29:42.336Z,75.40283203
2023-05-21T08:30:43.636Z,75.10375977
2023-05-21T08:31:44.980Z,75.30517578
2023-05-21T08:32:46.417Z,75.30517578
2023-05-21T08:33:47.343Z,74.89624023
2023-05-21T08:34:48.347Z,73.88916016
2023-05-21T08:35:48.854Z,74.09057617
2023-05-21T08:36:49.848Z,73.5534668
2023-05-21T08:37:50.916Z,73.65112305
2023-05-21T08:38:51.848Z,73.65112305
2023-05-21T08:39:52.874Z,73.75488281
2023-05-21T08:40:53.871Z,73.85253906
2023-05-21T08:41:54.809Z,73.95629883
2023-05-21T08:42:55.869Z,73.85253906
2023-05-21T08:44:28.126Z,73.5534668
2023-05-21T08:45:29.162Z,73.65112305
2023-05-21T08:46:30.673Z,72.74780273
2023-05-21T08:47:31.115Z,72.74780273
2023-05-21T08:48:31.580Z,72.74780273
2023-05-21T08:49:32.605Z,73.15063477
2023-05-21T08:50:33.625Z,73.35205078
2023-05-21T08:51:34.603Z,73.44970703
2023-05-21T08:52:35.033Z,73.75488281
2023-05-21T08:53:36.379Z,73.85253906
2023-05-21T08:54:37.640Z,73.75488281
2023-05-21T08:55:38.770Z,73.75488281
2023-05-21T08:56:40.102Z,73.75488281
2023-05-21T08:57:40.532Z,73.85253906
2023-05-21T08:58:41.840Z,73.75488281
2023-05-21T08:59:42.827Z,73.75488281
2023-05-21T09:00:43.824Z,74.35913086
2023-05-21T09:01:44.922Z,74.46289063
2023-05-21T09:02:45.896Z,74.35913086
2023-05-21T09:03:47.387Z,74.46289063
2023-05-21T09:04:48.379Z,74.76196289
2023-05-21T09:05:49.349Z,74.26147461
2023-05-21T09:06:50.360Z,74.15771484
2023-05-21T09:07:52.585Z,73.95629883
2023-05-21T09:08:52.849Z,73.75488281
2023-05-21T09:09:53.858Z,73.85253906
2023-05-21T09:10:54.818Z,73.85253906
2023-05-21T09:11:55.860Z,74.22485352
2023-05-21T09:13:27.609Z,74.22485352
2023-05-21T09:14:28.042Z,74.52392578
2023-05-21T09:15:28.607Z,75.03051758
2023-05-21T09:16:29.644Z,74.22485352
2023-05-21T09:17:30.830Z,74.22485352
2023-05-21T09:18:32.132Z,74.42626953
2023-05-21T09:19:32.735Z,74.12109375
2023-05-21T09:20:33.624Z,73.91967773
2023-05-21T09:21:34.637Z,73.91967773
2023-05-21T09:22:35.731Z,73.71826172
2023-05-21T09:23:37.126Z,73.31542969
2023-05-21T09:24:38.120Z,73.82202148
2023-05-21T09:25:39.899Z,74.0234375
2023-05-21T09:26:40.118Z,74.7253418
2023-05-21T09:27:41.347Z,74.0234375
2023-05-21T09:28:42.394Z,73.88305664
2023-05-21T09:29:43.659Z,72.50976563
2023-05-21T09:30:44.854Z,72.20458984
2023-05-21T09:31:45.891Z,71.90551758
2023-05-21T09:32:46.896Z,71.39892578
2023-05-21T09:33:47.832Z,71.80175781
2023-05-21T09:34:48.847Z,72.20458984
2023-05-21T09:35:49.845Z,73.21777344
2023-05-21T09:36:50.855Z,73.11401367
2023-05-21T09:37:51.815Z,73.31542969
2023-05-21T09:38:53.114Z,73.91967773
2023-05-21T09:39:54.159Z,73.91967773
2023-05-21T09:40:54.597Z,72.91259766
2023-05-21T09:41:55.007Z,72.91259766
2023-05-21T09:43:27.144Z,72.67456055
2023-05-21T09:44:27.613Z,72.27172852
2023-05-21T09:45:28.858Z,72.0703125
2023-05-21T09:46:30.024Z,72.27172852
2023-05-21T09:47:32.171Z,72.17407227
2023-05-21T09:48:32.582Z,72.0703125
2023-05-21T09:49:33.864Z,72.67456055
2023-05-21T09:50:35.861Z,72.77832031
2023-05-21T09:51:36.704Z,72.87597656
2023-05-21T09:52:40.081Z,72.97973633
2023-05-21T09:53:39.150Z,73.48022461
2023-05-21T09:54:40.131Z,73.07739258
2023-05-21T09:55:41.158Z,72.67456055
2023-05-21T09:56:41.698Z,72.77832031
2023-05-21T09:57:42.891Z,72.77832031
2023-05-21T09:58:43.948Z,73.07739258
2023-05-21T09:59:45.355Z,73.18115234
2023-05-21T10:00:46.629Z,73.38256836
2023-05-21T10:01:47.918Z,72.64404297
2023-05-21T10:02:49.035Z,72.24121094
2023-05-21T10:03:50.845Z,72.5402832
2023-05-21T10:04:51.366Z,72.13745117
2023-05-21T10:05:52.318Z,72.03979492
2023-05-21T10:06:53.404Z,71.93603516
2023-05-21T10:07:54.439Z,71.13037109
2023-05-21T10:09:26.634Z,70.92895508
2023-05-21T10:10:27.129Z,71.03271484
2023-05-21T10:11:27.570Z,71.43554688
2023-05-21T10:12:28.055Z,71.33178711
2023-05-21T10:13:29.357Z,71.73461914
2023-05-21T10:14:30.379Z,71.63696289
2023-05-21T10:15:31.384Z,71.93603516
2023-05-21T10:16:32.452Z,72.94311523
2023-05-21T10:17:33.990Z,72.80883789
2023-05-21T10:18:35.376Z,72.80883789
2023-05-21T10:19:36.426Z,72.30834961
2023-05-21T10:20:37.282Z,69.78759766
2023-05-21T10:21:37.397Z,69.58618164
2023-05-21T10:22:38.898Z,69.18334961
2023-05-21T10:23:40.174Z,69.38476563
2023-05-21T10:24:40.671Z,69.38476563
2023-05-21T10:25:41.639Z,69.35424805
2023-05-21T10:26:42.650Z,69.75708008
2023-05-21T10:27:43.886Z,70.66040039
2023-05-21T10:28:44.950Z,69.65332031
2023-05-21T10:29:46.435Z,70.05615234
2023-05-21T10:30:47.864Z,70.05615234
2023-05-21T10:31:48.871Z,69.85473633
2023-05-21T10:32:50.056Z,69.4519043
2023-05-21T10:33:50.406Z,69.11621094
2023-05-21T10:34:51.913Z,68.81713867
2023-05-21T10:35:53.369Z,68.71337891
2023-05-21T10:36:54.374Z,69.2199707
2023-05-21T10:38:26.740Z,69.42138672
2023-05-21T10:39:28.161Z,70.12329102
2023-05-21T10:40:29.130Z,70.29418945
2023-05-21T10:41:30.141Z,69.68994141
2023-05-21T10:42:31.134Z,68.68286133
2023-05-21T10:43:32.146Z,68.68286133
2023-05-21T10:44:32.742Z,68.48144531
2023-05-21T10:45:33.916Z,66.66870117
2023-05-21T10:46:34.883Z,66.63818359
2023-05-21T10:47:36.220Z,66.54052734
2023-05-21T10:48:37.188Z,65.83862305
2023-05-21T10:49:37.738Z,65.63720703
2023-05-21T10:50:39.247Z,64.52636719
2023-05-21T10:51:40.395Z,64.63012695
2023-05-21T10:52:41.396Z,64.83154297
2023-05-21T10:53:42.903Z,64.42871094
2023-05-21T10:54:43.994Z,64.42871094
2023-05-21T10:55:45.159Z,64.12963867
2023-05-21T10:56:46.169Z,64.33105469
2023-05-21T10:57:47.137Z,64.92919922
2023-05-21T10:58:48.135Z,65.73486328
2023-05-21T10:59:49.455Z,65.80200195
2023-05-21T11:00:51.027Z,65.60058594
2023-05-21T11:01:52.415Z,65.60058594
2023-05-21T11:02:53.502Z,64.59960938
2023-05-21T11:03:54.689Z,64.97192383
2023-05-21T11:05:25.566Z,65.57006836
2023-05-21T11:06:26.102Z,65.67382813
2023-05-21T11:07:27.377Z,65.77148438
2023-05-21T11:08:28.641Z,65.57006836
2023-05-21T11:09:29.655Z,65.77148438
2023-05-21T11:10:30.370Z,65.57006836
2023-05-21T11:11:31.439Z,65.97290039
2023-05-21T11:12:33.637Z,66.47338867
2023-05-21T11:13:34.077Z,65.77148438
2023-05-21T11:14:35.821Z,65.47241211